sensor_id;sensor_type;location;lat;lon;timestamp;P1;durP1;ratioP1;P2;durP2;ratioP2
65710;SDS011;52690;54.496;9.030;2023-04-15T00:01:34;9.10;;;6.47;;
65710;SDS011;52690;54.496;9.030;2023-04-15T00:03:34;8.57;;;6.40;;
65710;SDS011;52690;54.496;9.030;2023-04-15T00:05:35;11.03;;;7.27;;
65710;SDS011;52690;54.496;9.030;2023-04-15T00:07:36;9.30;;;6.65;;
65710;SDS011;52690;54.496;9.030;2023-04-15T00:09:36;9.87;;;7.30;;
65710;SDS011;52690;54.496;9.030;2023-04-15T00:11:36;9.00;;;7.13;;
65710;SDS011;52690;54.496;9.030;2023-04-15T00:13:36;11.93;;;7.60;;
65710;SDS011;52690;54.496;9.030;2023-04-15T00:15:36;10.73;;;7.90;;
65710;SDS011;52690;54.496;9.030;2023-04-15T00:17:36;12.20;;;7.93;;
65710;SDS011;52690;54.496;9.030;2023-04-15T00:19:37;11.80;;;8.43;;
65710;SDS011;52690;54.496;9.030;2023-04-15T00:21:38;13.43;;;8.03;;
65710;SDS011;52690;54.496;9.030;2023-04-15T00:23:38;12.88;;;9.07;;
65710;SDS011;52690;54.496;9.030;2023-04-15T00:25:39;13.20;;;8.07;;
65710;SDS011;52690;54.496;9.030;2023-04-15T00:27:39;15.15;;;9.18;;
65710;SDS011;52690;54.496;9.030;2023-04-15T00:29:39;11.03;;;8.10;;
65710;SDS011;52690;54.496;9.030;2023-04-15T00:31:39;11.17;;;8.67;;
65710;SDS011;52690;54.496;9.030;2023-04-15T00:33:40;12.18;;;8.55;;
65710;SDS011;52690;54.496;9.030;2023-04-15T00:35:40;12.23;;;8.83;;
65710;SDS011;52690;54.496;9.030;2023-04-15T00:37:41;13.17;;;9.37;;
65710;SDS011;52690;54.496;9.030;2023-04-15T00:39:41;13.27;;;8.23;;
65710;SDS011;52690;54.496;9.030;2023-04-15T00:41:42;13.07;;;9.57;;
65710;SDS011;52690;54.496;9.030;2023-04-15T00:43:42;14.48;;;9.52;;
65710;SDS011;52690;54.496;9.030;2023-04-15T00:45:42;12.13;;;9.20;;
65710;SDS011;52690;54.496;9.030;2023-04-15T00:47:42;16.33;;;10.20;;
65710;SDS011;52690;54.496;9.030;2023-04-15T00:49:42;13.60;;;9.63;;
65710;SDS011;52690;54.496;9.030;2023-04-15T00:51:42;15.03;;;9.33;;
65710;SDS011;52690;54.496;9.030;2023-04-15T00:53:44;17.27;;;10.63;;
65710;SDS011;52690;54.496;9.030;2023-04-15T00:55:44;16.98;;;10.63;;
65710;SDS011;52690;54.496;9.030;2023-04-15T00:57:44;16.17;;;10.47;;
65710;SDS011;52690;54.496;9.030;2023-04-15T00:59:45;15.73;;;10.63;;
65710;SDS011;52690;54.496;9.030;2023-04-15T01:01:45;16.90;;;10.33;;
65710;SDS011;52690;54.496;9.030;2023-04-15T01:03:45;15.60;;;10.43;;
65710;SDS011;52690;54.496;9.030;2023-04-15T01:05:46;14.07;;;9.65;;
65710;SDS011;52690;54.496;9.030;2023-04-15T01:07:46;15.67;;;10.40;;
65710;SDS011;52690;54.496;9.030;2023-04-15T01:09:48;17.52;;;11.52;;
65710;SDS011;52690;54.496;9.030;2023-04-15T01:11:48;16.98;;;10.48;;
65710;SDS011;52690;54.496;9.030;2023-04-15T01:13:48;15.77;;;10.90;;
65710;SDS011;52690;54.496;9.030;2023-04-15T01:15:49;15.15;;;11.38;;
65710;SDS011;52690;54.496;9.030;2023-04-15T01:17:50;17.77;;;11.68;;
65710;SDS011;52690;54.496;9.030;2023-04-15T01:19:50;20.73;;;11.00;;
65710;SDS011;52690;54.496;9.030;2023-04-15T01:21:50;17.95;;;11.50;;
65710;SDS011;52690;54.496;9.030;2023-04-15T01:23:50;15.77;;;10.85;;
65710;SDS011;52690;54.496;9.030;2023-04-15T01:25:53;16.48;;;11.73;;
65710;SDS011;52690;54.496;9.030;2023-04-15T01:27:54;18.30;;;11.40;;
65710;SDS011;52690;54.496;9.030;2023-04-15T01:29:54;16.95;;;11.43;;
65710;SDS011;52690;54.496;9.030;2023-04-15T01:31:55;18.07;;;11.77;;
65710;SDS011;52690;54.496;9.030;2023-04-15T01:33:55;15.43;;;10.87;;
65710;SDS011;52690;54.496;9.030;2023-04-15T01:35:55;14.20;;;10.53;;
65710;SDS011;52690;54.496;9.030;2023-04-15T01:37:55;16.27;;;10.80;;
65710;SDS011;52690;54.496;9.030;2023-04-15T01:39:57;15.32;;;10.57;;
65710;SDS011;52690;54.496;9.030;2023-04-15T01:41:58;13.93;;;9.90;;
65710;SDS011;52690;54.496;9.030;2023-04-15T01:43:58;15.73;;;10.15;;
65710;SDS011;52690;54.496;9.030;2023-04-15T01:45:59;15.93;;;9.80;;
65710;SDS011;52690;54.496;9.030;2023-04-15T01:47:59;17.33;;;9.80;;
65710;SDS011;52690;54.496;9.030;2023-04-15T01:49:59;15.10;;;9.87;;
65710;SDS011;52690;54.496;9.030;2023-04-15T01:51:59;15.13;;;9.77;;
65710;SDS011;52690;54.496;9.030;2023-04-15T01:53:59;14.30;;;9.60;;
65710;SDS011;52690;54.496;9.030;2023-04-15T01:55:59;16.97;;;10.30;;
65710;SDS011;52690;54.496;9.030;2023-04-15T01:58:01;16.90;;;10.20;;
65710;SDS011;52690;54.496;9.030;2023-04-15T02:00:01;14.27;;;9.20;;
65710;SDS011;52690;54.496;9.030;2023-04-15T02:02:01;14.70;;;9.75;;
65710;SDS011;52690;54.496;9.030;2023-04-15T02:04:02;13.57;;;9.10;;
65710;SDS011;52690;54.496;9.030;2023-04-15T02:06:02;11.43;;;8.50;;
65710;SDS011;52690;54.496;9.030;2023-04-15T02:08:02;12.10;;;9.02;;
65710;SDS011;52690;54.496;9.030;2023-04-15T02:10:02;14.57;;;9.40;;
65710;SDS011;52690;54.496;9.030;2023-04-15T02:12:03;13.43;;;8.85;;
65710;SDS011;52690;54.496;9.030;2023-04-15T02:14:04;14.55;;;9.10;;
65710;SDS011;52690;54.496;9.030;2023-04-15T02:16:13;13.88;;;9.48;;
65710;SDS011;52690;54.496;9.030;2023-04-15T02:18:14;13.20;;;9.07;;
65710;SDS011;52690;54.496;9.030;2023-04-15T02:20:14;11.85;;;8.70;;
65710;SDS011;52690;54.496;9.030;2023-04-15T02:22:14;11.90;;;8.83;;
65710;SDS011;52690;54.496;9.030;2023-04-15T02:24:14;12.23;;;8.73;;
65710;SDS011;52690;54.496;9.030;2023-04-15T02:26:14;11.17;;;8.47;;
65710;SDS011;52690;54.496;9.030;2023-04-15T02:28:14;12.60;;;8.63;;
65710;SDS011;52690;54.496;9.030;2023-04-15T02:30:16;13.43;;;8.80;;
65710;SDS011;52690;54.496;9.030;2023-04-15T02:32:16;13.45;;;9.05;;
65710;SDS011;52690;54.496;9.030;2023-04-15T02:34:16;12.10;;;8.43;;
65710;SDS011;52690;54.496;9.030;2023-04-15T02:36:17;11.70;;;8.53;;
65710;SDS011;52690;54.496;9.030;2023-04-15T02:38:17;12.00;;;9.10;;
65710;SDS011;52690;54.496;9.030;2023-04-15T02:40:17;13.23;;;8.43;;
65710;SDS011;52690;54.496;9.030;2023-04-15T02:42:17;12.30;;;8.63;;
65710;SDS011;52690;54.496;9.030;2023-04-15T02:44:17;15.13;;;9.00;;
65710;SDS011;52690;54.496;9.030;2023-04-15T02:46:19;13.27;;;8.90;;
65710;SDS011;52690;54.496;9.030;2023-04-15T02:48:19;16.55;;;10.00;;
65710;SDS011;52690;54.496;9.030;2023-04-15T02:50:19;14.83;;;9.77;;
65710;SDS011;52690;54.496;9.030;2023-04-15T02:52:19;15.40;;;9.97;;
65710;SDS011;52690;54.496;9.030;2023-04-15T02:54:20;14.03;;;9.53;;
65710;SDS011;52690;54.496;9.030;2023-04-15T02:56:20;14.18;;;9.55;;
65710;SDS011;52690;54.496;9.030;2023-04-15T02:58:20;15.53;;;10.20;;
65710;SDS011;52690;54.496;9.030;2023-04-15T03:00:20;15.43;;;10.20;;
65710;SDS011;52690;54.496;9.030;2023-04-15T03:02:23;14.85;;;10.15;;
65710;SDS011;52690;54.496;9.030;2023-04-15T03:04:23;14.32;;;10.13;;
65710;SDS011;52690;54.496;9.030;2023-04-15T03:06:23;18.00;;;11.03;;
65710;SDS011;52690;54.496;9.030;2023-04-15T03:08:23;15.97;;;10.93;;
65710;SDS011;52690;54.496;9.030;2023-04-15T03:10:23;18.27;;;11.03;;
65710;SDS011;52690;54.496;9.030;2023-04-15T03:12:24;15.33;;;10.77;;
65710;SDS011;52690;54.496;9.030;2023-04-15T03:14:24;17.23;;;11.43;;
65710;SDS011;52690;54.496;9.030;2023-04-15T03:16:24;18.00;;;11.30;;
65710;SDS011;52690;54.496;9.030;2023-04-15T03:18:25;15.70;;;11.30;;
65710;SDS011;52690;54.496;9.030;2023-04-15T03:20:26;17.00;;;10.55;;
65710;SDS011;52690;54.496;9.030;2023-04-15T03:22:26;15.83;;;11.23;;
65710;SDS011;52690;54.496;9.030;2023-04-15T03:24:26;19.20;;;11.17;;
65710;SDS011;52690;54.496;9.030;2023-04-15T03:26:26;17.53;;;11.97;;
65710;SDS011;52690;54.496;9.030;2023-04-15T03:28:26;17.08;;;11.35;;
65710;SDS011;52690;54.496;9.030;2023-04-15T03:30:27;16.80;;;10.95;;
65710;SDS011;52690;54.496;9.030;2023-04-15T03:32:27;16.10;;;11.20;;
65710;SDS011;52690;54.496;9.030;2023-04-15T03:34:28;18.73;;;12.07;;
65710;SDS011;52690;54.496;9.030;2023-04-15T03:36:29;21.95;;;11.95;;
65710;SDS011;52690;54.496;9.030;2023-04-15T03:38:30;17.52;;;11.82;;
65710;SDS011;52690;54.496;9.030;2023-04-15T03:40:30;18.97;;;11.77;;
65710;SDS011;52690;54.496;9.030;2023-04-15T03:42:30;18.70;;;11.27;;
65710;SDS011;52690;54.496;9.030;2023-04-15T03:44:30;17.40;;;10.87;;
65710;SDS011;52690;54.496;9.030;2023-04-15T03:46:30;16.63;;;11.70;;
65710;SDS011;52690;54.496;9.030;2023-04-15T03:48:31;15.50;;;10.07;;
65710;SDS011;52690;54.496;9.030;2023-04-15T03:50:32;14.87;;;9.80;;
65710;SDS011;52690;54.496;9.030;2023-04-15T03:52:32;14.38;;;10.10;;
65710;SDS011;52690;54.496;9.030;2023-04-15T03:54:32;12.57;;;9.73;;
65710;SDS011;52690;54.496;9.030;2023-04-15T03:56:33;13.97;;;8.90;;
65710;SDS011;52690;54.496;9.030;2023-04-15T03:58:33;14.10;;;9.40;;
65710;SDS011;52690;54.496;9.030;2023-04-15T04:00:33;13.90;;;9.37;;
65710;SDS011;52690;54.496;9.030;2023-04-15T04:02:33;17.63;;;9.37;;
65710;SDS011;52690;54.496;9.030;2023-04-15T04:04:33;13.17;;;9.27;;
65710;SDS011;52690;54.496;9.030;2023-04-15T04:06:35;12.70;;;9.10;;
65710;SDS011;52690;54.496;9.030;2023-04-15T04:08:35;12.85;;;8.85;;
65710;SDS011;52690;54.496;9.030;2023-04-15T04:10:35;12.80;;;8.80;;
65710;SDS011;52690;54.496;9.030;2023-04-15T04:12:35;16.93;;;9.53;;
65710;SDS011;52690;54.496;9.030;2023-04-15T04:14:35;18.73;;;9.63;;
65710;SDS011;52690;54.496;9.030;2023-04-15T04:16:36;13.37;;;9.57;;
65710;SDS011;52690;54.496;9.030;2023-04-15T04:18:36;13.77;;;9.23;;
65710;SDS011;52690;54.496;9.030;2023-04-15T04:20:36;16.73;;;9.70;;
65710;SDS011;52690;54.496;9.030;2023-04-15T04:22:38;16.40;;;10.40;;
65710;SDS011;52690;54.496;9.030;2023-04-15T04:24:38;15.23;;;9.68;;
65710;SDS011;52690;54.496;9.030;2023-04-15T04:26:38;14.63;;;9.40;;
65710;SDS011;52690;54.496;9.030;2023-04-15T04:28:38;13.40;;;9.33;;
65710;SDS011;52690;54.496;9.030;2023-04-15T04:30:38;14.23;;;8.77;;
65710;SDS011;52690;54.496;9.030;2023-04-15T04:32:38;13.25;;;9.07;;
65710;SDS011;52690;54.496;9.030;2023-04-15T04:34:39;13.70;;;9.03;;
65710;SDS011;52690;54.496;9.030;2023-04-15T04:36:39;13.23;;;9.27;;
65710;SDS011;52690;54.496;9.030;2023-04-15T04:38:40;14.60;;;9.53;;
65710;SDS011;52690;54.496;9.030;2023-04-15T04:40:40;14.32;;;8.75;;
65710;SDS011;52690;54.496;9.030;2023-04-15T04:42:41;11.80;;;7.80;;
65710;SDS011;52690;54.496;9.030;2023-04-15T04:44:41;13.40;;;8.53;;
65710;SDS011;52690;54.496;9.030;2023-04-15T04:46:41;14.37;;;9.37;;
65710;SDS011;52690;54.496;9.030;2023-04-15T04:48:41;12.63;;;8.33;;
65710;SDS011;52690;54.496;9.030;2023-04-15T04:50:41;12.87;;;8.20;;
65710;SDS011;52690;54.496;9.030;2023-04-15T04:52:42;10.52;;;7.70;;
65710;SDS011;52690;54.496;9.030;2023-04-15T04:54:43;13.43;;;7.60;;
65710;SDS011;52690;54.496;9.030;2023-04-15T04:56:43;11.13;;;7.45;;
65710;SDS011;52690;54.496;9.030;2023-04-15T04:58:43;13.60;;;7.57;;
65710;SDS011;52690;54.496;9.030;2023-04-15T05:00:43;12.40;;;7.47;;
65710;SDS011;52690;54.496;9.030;2023-04-15T05:02:44;12.40;;;8.37;;
65710;SDS011;52690;54.496;9.030;2023-04-15T05:04:44;10.40;;;7.57;;
65710;SDS011;52690;54.496;9.030;2023-04-15T05:06:44;9.97;;;7.00;;
65710;SDS011;52690;54.496;9.030;2023-04-15T05:08:44;11.33;;;7.80;;
65710;SDS011;52690;54.496;9.030;2023-04-15T05:10:46;9.10;;;6.70;;
65710;SDS011;52690;54.496;9.030;2023-04-15T05:12:46;11.35;;;7.30;;
65710;SDS011;52690;54.496;9.030;2023-04-15T05:14:46;11.97;;;6.43;;
65710;SDS011;52690;54.496;9.030;2023-04-15T05:16:46;7.33;;;6.03;;
65710;SDS011;52690;54.496;9.030;2023-04-15T05:18:46;9.53;;;6.90;;
65710;SDS011;52690;54.496;9.030;2023-04-15T05:20:47;10.27;;;6.63;;
65710;SDS011;52690;54.496;9.030;2023-04-15T05:22:47;9.07;;;6.73;;
65710;SDS011;52690;54.496;9.030;2023-04-15T05:24:47;10.30;;;6.17;;
65710;SDS011;52690;54.496;9.030;2023-04-15T05:26:48;10.07;;;6.77;;
65710;SDS011;52690;54.496;9.030;2023-04-15T05:28:49;9.88;;;6.55;;
65710;SDS011;52690;54.496;9.030;2023-04-15T05:30:49;8.30;;;6.17;;
65710;SDS011;52690;54.496;9.030;2023-04-15T05:32:49;8.17;;;6.40;;
65710;SDS011;52690;54.496;9.030;2023-04-15T05:34:49;8.60;;;6.10;;
65710;SDS011;52690;54.496;9.030;2023-04-15T05:36:49;7.67;;;5.83;;
65710;SDS011;52690;54.496;9.030;2023-04-15T05:38:49;7.60;;;6.10;;
65710;SDS011;52690;54.496;9.030;2023-04-15T05:40:49;8.13;;;6.03;;
65710;SDS011;52690;54.496;9.030;2023-04-15T05:42:51;8.50;;;6.07;;
65710;SDS011;52690;54.496;9.030;2023-04-15T05:44:51;8.90;;;5.78;;
65710;SDS011;52690;54.496;9.030;2023-04-15T05:46:51;6.77;;;5.43;;
65710;SDS011;52690;54.496;9.030;2023-04-15T05:48:51;6.93;;;4.90;;
65710;SDS011;52690;54.496;9.030;2023-04-15T05:50:52;11.90;;;5.63;;
65710;SDS011;52690;54.496;9.030;2023-04-15T05:52:52;7.72;;;5.70;;
65710;SDS011;52690;54.496;9.030;2023-04-15T05:54:52;6.33;;;5.17;;
65710;SDS011;52690;54.496;9.030;2023-04-15T05:56:52;6.83;;;5.27;;
65710;SDS011;52690;54.496;9.030;2023-04-15T05:58:54;8.87;;;5.60;;
65710;SDS011;52690;54.496;9.030;2023-04-15T06:00:54;5.38;;;4.70;;
65710;SDS011;52690;54.496;9.030;2023-04-15T06:02:54;6.30;;;5.13;;
65710;SDS011;52690;54.496;9.030;2023-04-15T06:04:55;6.05;;;5.18;;
65710;SDS011;52690;54.496;9.030;2023-04-15T06:06:55;5.43;;;4.87;;
65710;SDS011;52690;54.496;9.030;2023-04-15T06:08:55;7.47;;;5.30;;
65710;SDS011;52690;54.496;9.030;2023-04-15T06:10:55;5.47;;;4.83;;
65710;SDS011;52690;54.496;9.030;2023-04-15T06:12:55;5.60;;;4.83;;
65710;SDS011;52690;54.496;9.030;2023-04-15T06:14:57;5.80;;;4.97;;
65710;SDS011;52690;54.496;9.030;2023-04-15T06:16:57;5.30;;;4.50;;
65710;SDS011;52690;54.496;9.030;2023-04-15T06:18:57;5.43;;;4.67;;
65710;SDS011;52690;54.496;9.030;2023-04-15T06:20:57;8.67;;;5.00;;
65710;SDS011;52690;54.496;9.030;2023-04-15T06:22:57;5.72;;;4.93;;
65710;SDS011;52690;54.496;9.030;2023-04-15T06:24:58;6.20;;;4.80;;
65710;SDS011;52690;54.496;9.030;2023-04-15T06:26:58;6.18;;;4.68;;
65710;SDS011;52690;54.496;9.030;2023-04-15T06:28:58;5.33;;;4.63;;
65710;SDS011;52690;54.496;9.030;2023-04-15T06:30:59;9.33;;;4.60;;
65710;SDS011;52690;54.496;9.030;2023-04-15T06:33:00;5.03;;;4.53;;
65710;SDS011;52690;54.496;9.030;2023-04-15T06:35:00;5.63;;;4.43;;
65710;SDS011;52690;54.496;9.030;2023-04-15T06:37:00;5.33;;;4.30;;
65710;SDS011;52690;54.496;9.030;2023-04-15T06:39:00;4.97;;;4.40;;
65710;SDS011;52690;54.496;9.030;2023-04-15T06:41:00;5.13;;;4.43;;
65710;SDS011;52690;54.496;9.030;2023-04-15T06:43:01;4.60;;;4.22;;
65710;SDS011;52690;54.496;9.030;2023-04-15T06:45:02;7.50;;;4.87;;
65710;SDS011;52690;54.496;9.030;2023-04-15T06:47:03;6.05;;;4.57;;
65710;SDS011;52690;54.496;9.030;2023-04-15T06:49:03;5.00;;;4.60;;
65710;SDS011;52690;54.496;9.030;2023-04-15T06:51:04;4.53;;;4.13;;
65710;SDS011;52690;54.496;9.030;2023-04-15T06:53:04;6.20;;;4.80;;
65710;SDS011;52690;54.496;9.030;2023-04-15T06:55:04;5.03;;;4.53;;
65710;SDS011;52690;54.496;9.030;2023-04-15T06:57:05;6.10;;;5.10;;
65710;SDS011;52690;54.496;9.030;2023-04-15T06:59:05;6.97;;;4.97;;
65710;SDS011;52690;54.496;9.030;2023-04-15T07:01:05;6.80;;;5.03;;
65710;SDS011;52690;54.496;9.030;2023-04-15T07:03:07;6.53;;;4.97;;
65710;SDS011;52690;54.496;9.030;2023-04-15T07:05:07;6.18;;;4.82;;
65710;SDS011;52690;54.496;9.030;2023-04-15T07:07:07;6.70;;;5.32;;
65710;SDS011;52690;54.496;9.030;2023-04-15T07:09:07;8.87;;;5.43;;
65710;SDS011;52690;54.496;9.030;2023-04-15T07:11:07;6.90;;;5.27;;
65710;SDS011;52690;54.496;9.030;2023-04-15T07:13:07;7.80;;;5.73;;
65710;SDS011;52690;54.496;9.030;2023-04-15T07:15:08;8.47;;;6.27;;
65710;SDS011;52690;54.496;9.030;2023-04-15T07:17:08;8.85;;;5.90;;
65710;SDS011;52690;54.496;9.030;2023-04-15T07:19:10;9.70;;;6.17;;
65710;SDS011;52690;54.496;9.030;2023-04-15T07:21:10;10.10;;;6.25;;
65710;SDS011;52690;54.496;9.030;2023-04-15T07:23:10;7.07;;;6.05;;
65710;SDS011;52690;54.496;9.030;2023-04-15T07:25:10;9.50;;;6.83;;
65710;SDS011;52690;54.496;9.030;2023-04-15T07:27:10;11.03;;;7.13;;
65710;SDS011;52690;54.496;9.030;2023-04-15T07:29:10;12.70;;;6.80;;
65710;SDS011;52690;54.496;9.030;2023-04-15T07:31:11;9.53;;;7.10;;
65710;SDS011;52690;54.496;9.030;2023-04-15T07:33:11;12.07;;;8.13;;
65710;SDS011;52690;54.496;9.030;2023-04-15T07:35:12;12.20;;;7.43;;
65710;SDS011;52690;54.496;9.030;2023-04-15T07:37:13;13.20;;;7.97;;
65710;SDS011;52690;54.496;9.030;2023-04-15T07:39:13;14.00;;;8.30;;
65710;SDS011;52690;54.496;9.030;2023-04-15T07:41:13;13.37;;;8.40;;
65710;SDS011;52690;54.496;9.030;2023-04-15T07:43:13;17.20;;;9.20;;
65710;SDS011;52690;54.496;9.030;2023-04-15T07:45:14;14.77;;;9.20;;
65710;SDS011;52690;54.496;9.030;2023-04-15T07:47:14;15.98;;;9.70;;
65710;SDS011;52690;54.496;9.030;2023-04-15T07:49:14;18.03;;;10.27;;
65710;SDS011;52690;54.496;9.030;2023-04-15T07:51:16;19.67;;;11.03;;
65710;SDS011;52690;54.496;9.030;2023-04-15T07:53:16;19.00;;;10.57;;
65710;SDS011;52690;54.496;9.030;2023-04-15T07:55:16;20.40;;;11.27;;
65710;SDS011;52690;54.496;9.030;2023-04-15T07:57:16;17.83;;;10.20;;
65710;SDS011;52690;54.496;9.030;2023-04-15T07:59:16;18.60;;;10.23;;
65710;SDS011;52690;54.496;9.030;2023-04-15T08:01:16;19.27;;;10.97;;
65710;SDS011;52690;54.496;9.030;2023-04-15T08:03:17;23.33;;;12.40;;
65710;SDS011;52690;54.496;9.030;2023-04-15T08:05:17;20.80;;;11.55;;
65710;SDS011;52690;54.496;9.030;2023-04-15T08:07:19;22.17;;;12.53;;
65710;SDS011;52690;54.496;9.030;2023-04-15T08:09:19;23.83;;;13.63;;
65710;SDS011;52690;54.496;9.030;2023-04-15T08:11:19;28.15;;;14.40;;
65710;SDS011;52690;54.496;9.030;2023-04-15T08:13:19;27.20;;;15.00;;
65710;SDS011;52690;54.496;9.030;2023-04-15T08:15:19;29.47;;;15.27;;
65710;SDS011;52690;54.496;9.030;2023-04-15T08:17:19;26.63;;;14.60;;
65710;SDS011;52690;54.496;9.030;2023-04-15T08:19:20;28.93;;;16.00;;
65710;SDS011;52690;54.496;9.030;2023-04-15T08:21:20;37.97;;;17.73;;
65710;SDS011;52690;54.496;9.030;2023-04-15T08:23:21;40.17;;;18.38;;
65710;SDS011;52690;54.496;9.030;2023-04-15T08:25:22;38.50;;;17.80;;
65710;SDS011;52690;54.496;9.030;2023-04-15T08:27:22;37.87;;;18.90;;
65710;SDS011;52690;54.496;9.030;2023-04-15T08:29:22;39.53;;;18.57;;
65710;SDS011;52690;54.496;9.030;2023-04-15T08:31:22;39.42;;;18.98;;
65710;SDS011;52690;54.496;9.030;2023-04-15T08:33:23;38.00;;;18.45;;
65710;SDS011;52690;54.496;9.030;2023-04-15T08:35:23;41.13;;;19.30;;
65710;SDS011;52690;54.496;9.030;2023-04-15T08:37:23;47.10;;;20.37;;
65710;SDS011;52690;54.496;9.030;2023-04-15T08:39:24;48.17;;;21.77;;
65710;SDS011;52690;54.496;9.030;2023-04-15T08:41:25;44.60;;;20.77;;
65710;SDS011;52690;54.496;9.030;2023-04-15T08:43:26;50.40;;;22.20;;
65710;SDS011;52690;54.496;9.030;2023-04-15T08:45:26;50.47;;;23.27;;
65710;SDS011;52690;54.496;9.030;2023-04-15T08:47:28;45.90;;;22.45;;
65710;SDS011;52690;54.496;9.030;2023-04-15T08:49:29;46.58;;;22.85;;
65710;SDS011;52690;54.496;9.030;2023-04-15T08:51:29;46.63;;;23.87;;
65710;SDS011;52690;54.496;9.030;2023-04-15T08:53:29;54.35;;;24.73;;
65710;SDS011;52690;54.496;9.030;2023-04-15T08:55:32;50.17;;;24.67;;
65710;SDS011;52690;54.496;9.030;2023-04-15T08:57:32;53.50;;;25.88;;
65710;SDS011;52690;54.496;9.030;2023-04-15T08:59:32;53.43;;;26.27;;
65710;SDS011;52690;54.496;9.030;2023-04-15T09:01:32;53.63;;;25.43;;
65710;SDS011;52690;54.496;9.030;2023-04-15T09:03:33;52.78;;;27.85;;
65710;SDS011;52690;54.496;9.030;2023-04-15T09:05:34;55.47;;;27.02;;
65710;SDS011;52690;54.496;9.030;2023-04-15T09:07:34;57.90;;;27.23;;
65710;SDS011;52690;54.496;9.030;2023-04-15T09:09:34;53.67;;;27.80;;
65710;SDS011;52690;54.496;9.030;2023-04-15T09:11:36;58.77;;;28.60;;
65710;SDS011;52690;54.496;9.030;2023-04-15T09:13:36;56.20;;;28.23;;
65710;SDS011;52690;54.496;9.030;2023-04-15T09:15:36;59.83;;;28.37;;
65710;SDS011;52690;54.496;9.030;2023-04-15T09:17:40;54.65;;;27.30;;
65710;SDS011;52690;54.496;9.030;2023-04-15T09:19:41;50.90;;;27.95;;
65710;SDS011;52690;54.496;9.030;2023-04-15T09:21:41;52.00;;;28.13;;
65710;SDS011;52690;54.496;9.030;2023-04-15T09:23:52;58.33;;;29.55;;
65710;SDS011;52690;54.496;9.030;2023-04-15T09:25:53;53.38;;;28.40;;
65710;SDS011;52690;54.496;9.030;2023-04-15T09:27:55;49.77;;;28.03;;
65710;SDS011;52690;54.496;9.030;2023-04-15T09:29:55;52.25;;;27.48;;
65710;SDS011;52690;54.496;9.030;2023-04-15T09:31:55;49.70;;;27.73;;
65710;SDS011;52690;54.496;9.030;2023-04-15T09:33:56;50.40;;;27.47;;
65710;SDS011;52690;54.496;9.030;2023-04-15T09:35:56;49.87;;;26.80;;
65710;SDS011;52690;54.496;9.030;2023-04-15T09:38:01;51.22;;;27.52;;
65710;SDS011;52690;54.496;9.030;2023-04-15T09:40:01;60.00;;;28.98;;
65710;SDS011;52690;54.496;9.030;2023-04-15T09:42:04;49.97;;;27.63;;
65710;SDS011;52690;54.496;9.030;2023-04-15T09:44:06;54.92;;;29.58;;
65710;SDS011;52690;54.496;9.030;2023-04-15T09:46:06;62.38;;;30.65;;
65710;SDS011;52690;54.496;9.030;2023-04-15T09:48:16;57.70;;;30.07;;
65710;SDS011;52690;54.496;9.030;2023-04-15T09:50:17;57.40;;;28.73;;
65710;SDS011;52690;54.496;9.030;2023-04-15T09:52:18;53.38;;;28.50;;
65710;SDS011;52690;54.496;9.030;2023-04-15T09:54:18;63.83;;;31.47;;
65710;SDS011;52690;54.496;9.030;2023-04-15T09:56:18;58.58;;;29.75;;
65710;SDS011;52690;54.496;9.030;2023-04-15T09:58:22;56.78;;;30.13;;
65710;SDS011;52690;54.496;9.030;2023-04-15T10:00:24;59.75;;;29.95;;
65710;SDS011;52690;54.496;9.030;2023-04-15T10:02:24;57.42;;;30.98;;
65710;SDS011;52690;54.496;9.030;2023-04-15T10:04:26;54.88;;;29.17;;
65710;SDS011;52690;54.496;9.030;2023-04-15T10:06:26;52.13;;;29.13;;
65710;SDS011;52690;54.496;9.030;2023-04-15T10:08:27;45.50;;;25.83;;
65710;SDS011;52690;54.496;9.030;2023-04-15T10:10:28;44.30;;;25.88;;
65710;SDS011;52690;54.496;9.030;2023-04-15T10:12:28;45.70;;;25.77;;
65710;SDS011;52690;54.496;9.030;2023-04-15T10:14:28;46.65;;;26.40;;
65710;SDS011;52690;54.496;9.030;2023-04-15T10:16:32;41.40;;;25.00;;
65710;SDS011;52690;54.496;9.030;2023-04-15T10:18:34;37.90;;;23.45;;
65710;SDS011;52690;54.496;9.030;2023-04-15T10:20:34;41.58;;;23.50;;
65710;SDS011;52690;54.496;9.030;2023-04-15T10:22:35;42.20;;;23.63;;
65710;SDS011;52690;54.496;9.030;2023-04-15T10:24:36;39.95;;;23.48;;
65710;SDS011;52690;54.496;9.030;2023-04-15T10:26:37;46.92;;;24.20;;
65710;SDS011;52690;54.496;9.030;2023-04-15T10:28:38;35.73;;;22.87;;
65710;SDS011;52690;54.496;9.030;2023-04-15T10:30:38;36.40;;;22.73;;
65710;SDS011;52690;54.496;9.030;2023-04-15T10:32:39;41.83;;;23.55;;
65710;SDS011;52690;54.496;9.030;2023-04-15T10:34:40;36.20;;;22.25;;
65710;SDS011;52690;54.496;9.030;2023-04-15T10:36:41;38.38;;;22.77;;
65710;SDS011;52690;54.496;9.030;2023-04-15T10:38:41;33.60;;;21.50;;
65710;SDS011;52690;54.496;9.030;2023-04-15T10:40:41;32.75;;;20.23;;
65710;SDS011;52690;54.496;9.030;2023-04-15T10:42:42;31.58;;;19.90;;
65710;SDS011;52690;54.496;9.030;2023-04-15T10:44:43;32.77;;;19.30;;
65710;SDS011;52690;54.496;9.030;2023-04-15T10:46:43;31.17;;;19.55;;
65710;SDS011;52690;54.496;9.030;2023-04-15T10:48:49;25.90;;;17.95;;
65710;SDS011;52690;54.496;9.030;2023-04-15T10:50:54;25.83;;;18.23;;
65710;SDS011;52690;54.496;9.030;2023-04-15T10:52:55;27.90;;;17.80;;
65710;SDS011;52690;54.496;9.030;2023-04-15T10:55:11;27.92;;;17.95;;
65710;SDS011;52690;54.496;9.030;2023-04-15T10:57:15;32.20;;;18.55;;
65710;SDS011;52690;54.496;9.030;2023-04-15T10:59:15;26.95;;;18.75;;
65710;SDS011;52690;54.496;9.030;2023-04-15T11:01:16;25.80;;;17.63;;
65710;SDS011;52690;54.496;9.030;2023-04-15T11:03:22;29.92;;;17.88;;
65710;SDS011;52690;54.496;9.030;2023-04-15T11:05:48;26.08;;;16.38;;
65710;SDS011;52690;54.496;9.030;2023-04-15T11:07:50;22.85;;;16.42;;
65710;SDS011;52690;54.496;9.030;2023-04-15T11:09:50;22.77;;;15.60;;
65710;SDS011;52690;54.496;9.030;2023-04-15T11:14:05;23.67;;;16.23;;
65710;SDS011;52690;54.496;9.030;2023-04-15T11:16:13;24.25;;;15.70;;
65710;SDS011;52690;54.496;9.030;2023-04-15T11:18:14;21.33;;;14.83;;
65710;SDS011;52690;54.496;9.030;2023-04-15T11:20:15;23.08;;;15.20;;
65710;SDS011;52690;54.496;9.030;2023-04-15T11:22:16;19.08;;;14.45;;
65710;SDS011;52690;54.496;9.030;2023-04-15T11:24:22;19.00;;;14.90;;
65710;SDS011;52690;54.496;9.030;2023-04-15T11:26:24;21.08;;;14.63;;
65710;SDS011;52690;54.496;9.030;2023-04-15T11:28:25;21.10;;;14.27;;
65710;SDS011;52690;54.496;9.030;2023-04-15T11:30:26;18.65;;;12.98;;
65710;SDS011;52690;54.496;9.030;2023-04-15T11:32:26;18.60;;;14.15;;
65710;SDS011;52690;54.496;9.030;2023-04-15T11:34:26;20.70;;;13.97;;
65710;SDS011;52690;54.496;9.030;2023-04-15T11:36:27;18.90;;;13.10;;
65710;SDS011;52690;54.496;9.030;2023-04-15T11:38:28;21.45;;;12.68;;
65710;SDS011;52690;54.496;9.030;2023-04-15T11:40:29;19.15;;;12.70;;
65710;SDS011;52690;54.496;9.030;2023-04-15T11:42:29;15.70;;;12.43;;
65710;SDS011;52690;54.496;9.030;2023-04-15T11:44:29;17.67;;;11.97;;
65710;SDS011;52690;54.496;9.030;2023-04-15T11:46:29;19.63;;;12.33;;
65710;SDS011;52690;54.496;9.030;2023-04-15T11:48:31;19.13;;;12.83;;
65710;SDS011;52690;54.496;9.030;2023-04-15T11:50:31;17.85;;;12.27;;
65710;SDS011;52690;54.496;9.030;2023-04-15T11:52:31;16.17;;;11.50;;
65710;SDS011;52690;54.496;9.030;2023-04-15T11:54:33;16.63;;;12.10;;
65710;SDS011;52690;54.496;9.030;2023-04-15T11:56:33;16.15;;;12.02;;